sensor_id;sensor_type;location;lat;lon;timestamp;pressure;altitude;pressure_sealevel;temperature;humidity
74675;BME280;63200;48.810;12.352;2023-03-14T00:00:30;95839.81;;;6.12;72.44
74675;BME280;63200;48.810;12.352;2023-03-14T00:02:56;95887.50;;;6.45;72.57
74675;BME280;63200;48.810;12.352;2023-03-14T00:05:21;95884.28;;;6.43;72.55
74675;BME280;63200;48.810;12.352;2023-03-14T00:07:46;95858.09;;;6.15;72.49
74675;BME280;63200;48.810;12.352;2023-03-14T00:10:13;95890.69;;;6.33;72.46
74675;BME280;63200;48.810;12.352;2023-03-14T00:12:40;95895.38;;;6.27;72.55
74675;BME280;63200;48.810;12.352;2023-03-14T00:15:06;95896.31;;;6.17;72.82
74675;BME280;63200;48.810;12.352;2023-03-14T00:17:33;95905.31;;;6.13;73.44
74675;BME280;63200;48.810;12.352;2023-03-14T00:19:59;95899.78;;;6.04;73.27
74675;BME280;63200;48.810;12.352;2023-03-14T00:22:32;95873.84;;;5.89;73.34
74675;BME280;63200;48.810;12.352;2023-03-14T00:24:58;95866.22;;;5.77;72.65
74675;BME280;63200;48.810;12.352;2023-03-14T00:27:23;95897.56;;;5.87;72.89
74675;BME280;63200;48.810;12.352;2023-03-14T00:29:48;95866.47;;;5.43;74.23
74675;BME280;63200;48.810;12.352;2023-03-14T00:32:14;95900.66;;;5.61;74.61
74675;BME280;63200;48.810;12.352;2023-03-14T00:34:39;95893.25;;;5.53;74.70
74675;BME280;63200;48.810;12.352;2023-03-14T00:37:05;95892.81;;;5.65;75.03
74675;BME280;63200;48.810;12.352;2023-03-14T00:39:30;95899.34;;;5.78;74.86
74675;BME280;63200;48.810;12.352;2023-03-14T00:41:56;95890.09;;;5.84;74.94
74675;BME280;63200;48.810;12.352;2023-03-14T00:44:21;95910.19;;;5.92;75.03
74675;BME280;63200;48.810;12.352;2023-03-14T00:46:46;95903.66;;;5.60;75.25
74675;BME280;63200;48.810;12.352;2023-03-14T00:49:12;95932.31;;;5.70;75.31
74675;BME280;63200;48.810;12.352;2023-03-14T00:51:37;95916.06;;;5.75;75.16
74675;BME280;63200;48.810;12.352;2023-03-14T00:54:02;95937.31;;;5.76;75.38
74675;BME280;63200;48.810;12.352;2023-03-14T00:56:27;95944.38;;;5.72;75.50
74675;BME280;63200;48.810;12.352;2023-03-14T00:58:54;95900.56;;;5.47;75.99
74675;BME280;63200;48.810;12.352;2023-03-14T01:01:20;95907.84;;;5.66;75.77
74675;BME280;63200;48.810;12.352;2023-03-14T01:03:46;95943.06;;;5.89;75.85
74675;BME280;63200;48.810;12.352;2023-03-14T01:06:20;95944.31;;;5.96;75.71
74675;BME280;63200;48.810;12.352;2023-03-14T01:08:45;95931.59;;;6.02;75.90
74675;BME280;63200;48.810;12.352;2023-03-14T01:11:15;95923.44;;;6.07;75.83
74675;BME280;63200;48.810;12.352;2023-03-14T01:13:41;95909.38;;;6.10;76.02
74675;BME280;63200;48.810;12.352;2023-03-14T01:16:09;95889.34;;;5.97;76.21
74675;BME280;63200;48.810;12.352;2023-03-14T01:18:35;95904.91;;;6.20;76.26
74675;BME280;63200;48.810;12.352;2023-03-14T01:21:02;95907.72;;;6.28;76.50
74675;BME280;63200;48.810;12.352;2023-03-14T01:23:27;95906.34;;;6.31;76.61
74675;BME280;63200;48.810;12.352;2023-03-14T01:25:53;95894.38;;;6.37;76.48
74675;BME280;63200;48.810;12.352;2023-03-14T01:28:18;95860.41;;;6.22;76.47
74675;BME280;63200;48.810;12.352;2023-03-14T01:30:43;95877.03;;;6.43;75.99
74675;BME280;63200;48.810;12.352;2023-03-14T01:33:09;95841.25;;;6.24;76.17
74675;BME280;63200;48.810;12.352;2023-03-14T01:35:34;95880.50;;;6.44;76.05
74675;BME280;63200;48.810;12.352;2023-03-14T01:37:59;95896.47;;;6.40;77.28
74675;BME280;63200;48.810;12.352;2023-03-14T01:40:25;95905.00;;;6.47;78.05
74675;BME280;63200;48.810;12.352;2023-03-14T01:42:57;95907.50;;;6.58;77.60
74675;BME280;63200;48.810;12.352;2023-03-14T01:48:28;95822.66;;;6.08;79.03
74675;BME280;63200;48.810;12.352;2023-03-14T01:50:56;95884.13;;;6.53;79.61
74675;BME280;63200;48.810;12.352;2023-03-14T01:53:22;95911.72;;;6.92;80.31
74675;BME280;63200;48.810;12.352;2023-03-14T01:55:48;95915.31;;;7.15;80.85
74675;BME280;63200;48.810;12.352;2023-03-14T01:58:16;95883.41;;;7.31;80.89
74675;BME280;63200;48.810;12.352;2023-03-14T02:00:41;95922.53;;;8.07;79.98
74675;BME280;63200;48.810;12.352;2023-03-14T02:03:11;95923.53;;;8.56;78.42
74675;BME280;63200;48.810;12.352;2023-03-14T02:05:40;95926.63;;;8.72;77.29
74675;BME280;63200;48.810;12.352;2023-03-14T02:08:09;95914.84;;;8.68;77.21
74675;BME280;63200;48.810;12.352;2023-03-14T02:10:38;95934.94;;;8.76;77.45
74675;BME280;63200;48.810;12.352;2023-03-14T02:13:06;95928.38;;;8.68;77.79
74675;BME280;63200;48.810;12.352;2023-03-14T02:15:32;95932.94;;;8.59;78.32
74675;BME280;63200;48.810;12.352;2023-03-14T02:17:59;95908.09;;;8.34;78.42
74675;BME280;63200;48.810;12.352;2023-03-14T02:20:32;95934.16;;;8.53;78.76
74675;BME280;63200;48.810;12.352;2023-03-14T02:22:59;95873.75;;;8.12;77.86
74675;BME280;63200;48.810;12.352;2023-03-14T02:28:00;95927.22;;;8.38;78.06
74675;BME280;63200;48.810;12.352;2023-03-14T02:30:28;95937.41;;;8.41;77.79
74675;BME280;63200;48.810;12.352;2023-03-14T02:32:56;95920.00;;;8.33;78.34
74675;BME280;63200;48.810;12.352;2023-03-14T02:35:23;95917.09;;;8.29;78.46
74675;BME280;63200;48.810;12.352;2023-03-14T02:37:59;95910.06;;;8.20;78.62
74675;BME280;63200;48.810;12.352;2023-03-14T02:40:26;95912.75;;;8.20;78.88
74675;BME280;63200;48.810;12.352;2023-03-14T02:42:51;95854.53;;;7.91;78.35
74675;BME280;63200;48.810;12.352;2023-03-14T02:47:44;95888.19;;;8.07;79.45
74675;BME280;63200;48.810;12.352;2023-03-14T02:50:18;95890.28;;;8.10;79.89
74675;BME280;63200;48.810;12.352;2023-03-14T02:52:45;95868.53;;;7.93;80.46
74675;BME280;63200;48.810;12.352;2023-03-14T02:55:10;95883.81;;;7.97;80.55
74675;BME280;63200;48.810;12.352;2023-03-14T02:57:36;95877.31;;;7.98;80.81
74675;BME280;63200;48.810;12.352;2023-03-14T03:00:02;95836.03;;;7.84;80.82
74675;BME280;63200;48.810;12.352;2023-03-14T03:02:30;95857.44;;;7.94;80.54
74675;BME280;63200;48.810;12.352;2023-03-14T03:04:55;95843.69;;;7.82;79.88
74675;BME280;63200;48.810;12.352;2023-03-14T03:07:21;95797.34;;;7.66;79.97
74675;BME280;63200;48.810;12.352;2023-03-14T03:09:46;95822.22;;;7.86;80.45
74675;BME280;63200;48.810;12.352;2023-03-14T03:12:11;95826.22;;;7.88;80.65
74675;BME280;63200;48.810;12.352;2023-03-14T03:14:37;95779.75;;;7.77;80.96
74675;BME280;63200;48.810;12.352;2023-03-14T03:17:03;95778.09;;;7.90;81.49
74675;BME280;63200;48.810;12.352;2023-03-14T03:19:29;95731.38;;;7.67;81.53
74675;BME280;63200;48.810;12.352;2023-03-14T03:21:54;95772.19;;;7.88;81.63
74675;BME280;63200;48.810;12.352;2023-03-14T03:24:20;95747.28;;;7.68;81.05
74675;BME280;63200;48.810;12.352;2023-03-14T03:26:45;95760.38;;;7.75;81.09
74675;BME280;63200;48.810;12.352;2023-03-14T03:29:10;95782.34;;;7.82;80.60
74675;BME280;63200;48.810;12.352;2023-03-14T03:31:37;95808.66;;;7.99;80.16
74675;BME280;63200;48.810;12.352;2023-03-14T03:34:03;95743.91;;;7.63;80.24
74675;BME280;63200;48.810;12.352;2023-03-14T03:36:28;95798.97;;;7.98;80.52
74675;BME280;63200;48.810;12.352;2023-03-14T03:38:53;95807.19;;;7.93;80.23
74675;BME280;63200;48.810;12.352;2023-03-14T03:41:18;95771.84;;;7.81;80.34
74675;BME280;63200;48.810;12.352;2023-03-14T03:43:44;95805.16;;;7.99;80.20
74675;BME280;63200;48.810;12.352;2023-03-14T03:46:09;95801.97;;;7.97;80.10
74675;BME280;63200;48.810;12.352;2023-03-14T03:48:35;95760.88;;;7.55;80.29
74675;BME280;63200;48.810;12.352;2023-03-14T03:51:01;95812.91;;;7.92;80.13
74675;BME280;63200;48.810;12.352;2023-03-14T03:53:26;95805.22;;;7.85;80.31
74675;BME280;63200;48.810;12.352;2023-03-14T03:55:51;95819.22;;;7.87;80.07
74675;BME280;63200;48.810;12.352;2023-03-14T03:58:17;95805.84;;;7.82;80.03
74675;BME280;63200;48.810;12.352;2023-03-14T04:00:42;95826.91;;;7.94;79.93
74675;BME280;63200;48.810;12.352;2023-03-14T04:03:08;95809.84;;;7.84;80.02
74675;BME280;63200;48.810;12.352;2023-03-14T04:05:33;95783.56;;;7.76;80.02
74675;BME280;63200;48.810;12.352;2023-03-14T04:08:00;95816.69;;;7.91;79.53
74675;BME280;63200;48.810;12.352;2023-03-14T04:10:25;95786.88;;;7.73;79.17
74675;BME280;63200;48.810;12.352;2023-03-14T04:12:50;95772.72;;;7.67;79.11
74675;BME280;63200;48.810;12.352;2023-03-14T04:15:17;95802.22;;;7.87;78.97
74675;BME280;63200;48.810;12.352;2023-03-14T04:17:42;95804.06;;;7.77;78.94
74675;BME280;63200;48.810;12.352;2023-03-14T04:20:08;95790.09;;;7.75;78.85
74675;BME280;63200;48.810;12.352;2023-03-14T04:22:36;95793.44;;;7.81;78.88
74675;BME280;63200;48.810;12.352;2023-03-14T04:25:01;95792.94;;;7.79;78.79
74675;BME280;63200;48.810;12.352;2023-03-14T04:27:28;95783.63;;;7.85;78.92
74675;BME280;63200;48.810;12.352;2023-03-14T04:29:53;95766.06;;;7.74;78.68
74675;BME280;63200;48.810;12.352;2023-03-14T04:32:19;95771.66;;;7.77;78.74
74675;BME280;63200;48.810;12.352;2023-03-14T04:34:44;95780.38;;;7.74;78.76
74675;BME280;63200;48.810;12.352;2023-03-14T04:37:10;95779.44;;;7.79;78.58
74675;BME280;63200;48.810;12.352;2023-03-14T04:39:35;95745.44;;;7.55;78.60
74675;BME280;63200;48.810;12.352;2023-03-14T04:42:01;95779.28;;;7.75;78.73
74675;BME280;63200;48.810;12.352;2023-03-14T04:44:26;95778.59;;;7.70;78.58
74675;BME280;63200;48.810;12.352;2023-03-14T04:46:51;95787.50;;;7.70;78.92
74675;BME280;63200;48.810;12.352;2023-03-14T04:49:17;95779.53;;;7.65;78.85
74675;BME280;63200;48.810;12.352;2023-03-14T04:51:42;95778.91;;;7.45;78.94
74675;BME280;63200;48.810;12.352;2023-03-14T04:54:07;95772.72;;;7.45;79.24
74675;BME280;63200;48.810;12.352;2023-03-14T04:56:33;95780.63;;;7.41;79.33
74675;BME280;63200;48.810;12.352;2023-03-14T04:58:58;95780.63;;;7.41;79.40
74675;BME280;63200;48.810;12.352;2023-03-14T05:01:23;95787.63;;;7.42;79.43
74675;BME280;63200;48.810;12.352;2023-03-14T05:03:49;95764.84;;;7.34;79.42
74675;BME280;63200;48.810;12.352;2023-03-14T05:06:14;95757.84;;;7.33;79.31
74675;BME280;63200;48.810;12.352;2023-03-14T05:08:39;95743.69;;;7.28;79.03
74675;BME280;63200;48.810;12.352;2023-03-14T05:11:05;95740.66;;;7.29;78.93
74675;BME280;63200;48.810;12.352;2023-03-14T05:13:30;95770.81;;;7.45;79.20
74675;BME280;63200;48.810;12.352;2023-03-14T05:16:06;95769.06;;;7.49;78.88
74675;BME280;63200;48.810;12.352;2023-03-14T05:18:32;95758.28;;;7.49;79.03
74675;BME280;63200;48.810;12.352;2023-03-14T05:20:58;95734.22;;;7.39;78.75
74675;BME280;63200;48.810;12.352;2023-03-14T05:23:24;95729.06;;;7.29;78.76
74675;BME280;63200;48.810;12.352;2023-03-14T05:25:49;95729.25;;;7.32;78.72
74675;BME280;63200;48.810;12.352;2023-03-14T05:28:14;95745.63;;;7.36;78.70
74675;BME280;63200;48.810;12.352;2023-03-14T05:30:40;95738.75;;;7.30;78.40
74675;BME280;63200;48.810;12.352;2023-03-14T05:33:05;95759.44;;;7.34;78.40
74675;BME280;63200;48.810;12.352;2023-03-14T05:35:30;95784.00;;;7.47;78.64
74675;BME280;63200;48.810;12.352;2023-03-14T05:37:56;95757.91;;;7.42;78.50
74675;BME280;63200;48.810;12.352;2023-03-14T05:40:21;95733.47;;;7.25;78.53
74675;BME280;63200;48.810;12.352;2023-03-14T05:42:47;95721.81;;;7.15;78.56
74675;BME280;63200;48.810;12.352;2023-03-14T05:45:12;95760.63;;;7.42;78.40
74675;BME280;63200;48.810;12.352;2023-03-14T05:47:37;95774.97;;;7.52;78.31
74675;BME280;63200;48.810;12.352;2023-03-14T05:50:03;95761.97;;;7.54;77.85
74675;BME280;63200;48.810;12.352;2023-03-14T05:52:28;95765.75;;;7.53;77.76
74675;BME280;63200;48.810;12.352;2023-03-14T05:54:53;95731.84;;;7.38;77.11
74675;BME280;63200;48.810;12.352;2023-03-14T05:57:19;95749.09;;;7.50;76.97
74675;BME280;63200;48.810;12.352;2023-03-14T05:59:44;95699.44;;;7.15;76.98
74675;BME280;63200;48.810;12.352;2023-03-14T06:02:09;95718.88;;;7.26;77.02
74675;BME280;63200;48.810;12.352;2023-03-14T06:04:35;95744.78;;;7.49;76.52
74675;BME280;63200;48.810;12.352;2023-03-14T06:07:00;95753.25;;;7.57;76.71
74675;BME280;63200;48.810;12.352;2023-03-14T06:09:25;95744.91;;;7.44;76.24
74675;BME280;63200;48.810;12.352;2023-03-14T06:11:51;95714.34;;;7.35;76.47
74675;BME280;63200;48.810;12.352;2023-03-14T06:14:16;95742.00;;;7.41;76.66
74675;BME280;63200;48.810;12.352;2023-03-14T06:16:42;95763.88;;;7.53;76.42
74675;BME280;63200;48.810;12.352;2023-03-14T06:19:07;95763.00;;;7.44;76.39
74675;BME280;63200;48.810;12.352;2023-03-14T06:21:32;95761.59;;;7.46;76.56
74675;BME280;63200;48.810;12.352;2023-03-14T06:23:58;95742.41;;;7.48;76.38
74675;BME280;63200;48.810;12.352;2023-03-14T06:26:23;95732.34;;;7.40;75.92
74675;BME280;63200;48.810;12.352;2023-03-14T06:28:49;95748.47;;;7.54;75.77
74675;BME280;63200;48.810;12.352;2023-03-14T06:31:15;95713.19;;;7.27;75.70
74675;BME280;63200;48.810;12.352;2023-03-14T06:33:41;95697.28;;;7.26;75.98
74675;BME280;63200;48.810;12.352;2023-03-14T06:36:06;95745.41;;;7.46;75.43
74675;BME280;63200;48.810;12.352;2023-03-14T06:38:32;95763.91;;;7.62;75.64
74675;BME280;63200;48.810;12.352;2023-03-14T06:41:03;95756.66;;;7.71;75.50
74675;BME280;63200;48.810;12.352;2023-03-14T06:43:29;95760.84;;;7.77;75.05
74675;BME280;63200;48.810;12.352;2023-03-14T06:45:55;95755.44;;;7.77;74.94
74675;BME280;63200;48.810;12.352;2023-03-14T06:48:20;95759.31;;;7.85;74.67
74675;BME280;63200;48.810;12.352;2023-03-14T06:50:47;95746.56;;;7.77;74.58
74675;BME280;63200;48.810;12.352;2023-03-14T06:53:13;95762.34;;;7.92;74.03
74675;BME280;63200;48.810;12.352;2023-03-14T06:55:38;95752.69;;;7.91;73.98
74675;BME280;63200;48.810;12.352;2023-03-14T06:58:03;95739.75;;;7.79;74.35
74675;BME280;63200;48.810;12.352;2023-03-14T07:00:29;95719.97;;;7.70;74.12
74675;BME280;63200;48.810;12.352;2023-03-14T07:02:54;95747.31;;;8.00;74.46
74675;BME280;63200;48.810;12.352;2023-03-14T07:05:19;95740.28;;;7.99;73.56
74675;BME280;63200;48.810;12.352;2023-03-14T07:07:45;95721.34;;;7.90;73.25
74675;BME280;63200;48.810;12.352;2023-03-14T07:10:10;95704.97;;;7.87;73.40
74675;BME280;63200;48.810;12.352;2023-03-14T07:12:36;95736.56;;;8.17;73.07
74675;BME280;63200;48.810;12.352;2023-03-14T07:15:01;95741.97;;;8.17;73.57
74675;BME280;63200;48.810;12.352;2023-03-14T07:17:27;95707.28;;;8.11;73.55
74675;BME280;63200;48.810;12.352;2023-03-14T07:19:52;95704.63;;;8.20;72.58
74675;BME280;63200;48.810;12.352;2023-03-14T07:22:17;95734.09;;;8.39;72.49
74675;BME280;63200;48.810;12.352;2023-03-14T07:24:42;95740.78;;;8.41;71.98
74675;BME280;63200;48.810;12.352;2023-03-14T07:27:08;95711.03;;;8.41;71.46
74675;BME280;63200;48.810;12.352;2023-03-14T07:29:33;95748.38;;;8.62;72.15
74675;BME280;63200;48.810;12.352;2023-03-14T07:31:58;95721.16;;;8.49;70.92
74675;BME280;63200;48.810;12.352;2023-03-14T07:34:23;95753.19;;;8.91;71.32
74675;BME280;63200;48.810;12.352;2023-03-14T07:36:49;95757.81;;;8.91;70.84
74675;BME280;63200;48.810;12.352;2023-03-14T07:39:14;95727.72;;;8.75;70.65
74675;BME280;63200;48.810;12.352;2023-03-14T07:41:40;95714.94;;;8.66;70.55
74675;BME280;63200;48.810;12.352;2023-03-14T07:44:05;95779.34;;;8.96;70.00
74675;BME280;63200;48.810;12.352;2023-03-14T07:46:30;95772.94;;;9.00;70.30
74675;BME280;63200;48.810;12.352;2023-03-14T07:48:56;95774.53;;;8.84;70.59
74675;BME280;63200;48.810;12.352;2023-03-14T07:51:21;95769.94;;;8.93;70.12
74675;BME280;63200;48.810;12.352;2023-03-14T07:53:46;95780.88;;;8.79;70.25
74675;BME280;63200;48.810;12.352;2023-03-14T07:56:12;95793.47;;;8.84;69.81
74675;BME280;63200;48.810;12.352;2023-03-14T07:58:37;95771.09;;;8.61;69.80
74675;BME280;63200;48.810;12.352;2023-03-14T08:01:02;95775.81;;;8.87;69.76
74675;BME280;63200;48.810;12.352;2023-03-14T08:03:28;95759.09;;;8.76;69.30
74675;BME280;63200;48.810;12.352;2023-03-14T08:05:53;95747.47;;;8.84;68.93
74675;BME280;63200;48.810;12.352;2023-03-14T08:08:19;95772.00;;;8.96;69.67
74675;BME280;63200;48.810;12.352;2023-03-14T08:10:44;95749.97;;;8.63;68.67
74675;BME280;63200;48.810;12.352;2023-03-14T08:13:11;95760.16;;;8.66;69.34
74675;BME280;63200;48.810;12.352;2023-03-14T08:15:37;95782.19;;;8.91;69.37
74675;BME280;63200;48.810;12.352;2023-03-14T08:18:03;95769.44;;;8.91;68.47
74675;BME280;63200;48.810;12.352;2023-03-14T08:20:29;95747.91;;;8.69;68.70
74675;BME280;63200;48.810;12.352;2023-03-14T08:22:59;95779.19;;;9.01;68.59
74675;BME280;63200;48.810;12.352;2023-03-14T08:25:26;95775.19;;;9.07;68.53
74675;BME280;63200;48.810;12.352;2023-03-14T08:27:52;95771.56;;;9.12;68.38
74675;BME280;63200;48.810;12.352;2023-03-14T08:30:19;95764.69;;;9.23;67.76
74675;BME280;63200;48.810;12.352;2023-03-14T08:32:44;95764.69;;;9.23;67.09
74675;BME280;63200;48.810;12.352;2023-03-14T08:35:11;95766.94;;;9.47;67.55
74675;BME280;63200;48.810;12.352;2023-03-14T08:37:37;95769.00;;;9.50;67.43
74675;BME280;63200;48.810;12.352;2023-03-14T08:40:04;95774.44;;;9.50;66.37
74675;BME280;63200;48.810;12.352;2023-03-14T08:42:33;95774.44;;;9.59;67.11
74675;BME280;63200;48.810;12.352;2023-03-14T08:44:59;95768.53;;;9.66;66.02
74675;BME280;63200;48.810;12.352;2023-03-14T08:47:24;95771.38;;;9.70;66.22
74675;BME280;63200;48.810;12.352;2023-03-14T08:49:50;95775.75;;;10.18;65.62
74675;BME280;63200;48.810;12.352;2023-03-14T08:52:15;95768.56;;;10.22;64.75
74675;BME280;63200;48.810;12.352;2023-03-14T08:54:43;95771.19;;;10.57;64.13
74675;BME280;63200;48.810;12.352;2023-03-14T08:57:08;95767.84;;;10.81;63.13
74675;BME280;63200;48.810;12.352;2023-03-14T08:59:33;95769.19;;;10.96;62.45
74675;BME280;63200;48.810;12.352;2023-03-14T09:01:58;95765.25;;;11.15;62.26
74675;BME280;63200;48.810;12.352;2023-03-14T09:04:24;95723.44;;;11.07;62.19
74675;BME280;63200;48.810;12.352;2023-03-14T09:06:49;95727.16;;;11.03;62.56
74675;BME280;63200;48.810;12.352;2023-03-14T09:09:14;95739.22;;;10.93;62.07
74675;BME280;63200;48.810;12.352;2023-03-14T09:11:40;95739.81;;;10.69;62.35
74675;BME280;63200;48.810;12.352;2023-03-14T09:14:06;95763.63;;;10.63;62.35
74675;BME280;63200;48.810;12.352;2023-03-14T09:16:33;95766.25;;;10.50;62.42
74675;BME280;63200;48.810;12.352;2023-03-14T09:18:58;95755.09;;;10.43;62.38
74675;BME280;63200;48.810;12.352;2023-03-14T09:21:25;95755.84;;;10.61;62.44
74675;BME280;63200;48.810;12.352;2023-03-14T09:23:51;95718.13;;;10.30;62.43
74675;BME280;63200;48.810;12.352;2023-03-14T09:26:16;95762.41;;;10.52;62.57
74675;BME280;63200;48.810;12.352;2023-03-14T09:28:41;95751.53;;;10.60;63.02
74675;BME280;63200;48.810;12.352;2023-03-14T09:31:10;95735.56;;;10.59;62.60
74675;BME280;63200;48.810;12.352;2023-03-14T09:33:37;95765.22;;;10.94;61.23
74675;BME280;63200;48.810;12.352;2023-03-14T09:36:03;95764.38;;;11.02;61.77
74675;BME280;63200;48.810;12.352;2023-03-14T09:38:28;95757.28;;;11.10;62.77
74675;BME280;63200;48.810;12.352;2023-03-14T09:40:55;95740.78;;;11.36;60.33
74675;BME280;63200;48.810;12.352;2023-03-14T09:43:24;95751.25;;;11.04;61.16
74675;BME280;63200;48.810;12.352;2023-03-14T09:45:50;95756.03;;;11.07;60.85
74675;BME280;63200;48.810;12.352;2023-03-14T09:48:21;95764.44;;;10.93;62.08
74675;BME280;63200;48.810;12.352;2023-03-14T09:50:52;95770.41;;;11.08;61.73
74675;BME280;63200;48.810;12.352;2023-03-14T09:53:26;95754.44;;;10.85;61.42
74675;BME280;63200;48.810;12.352;2023-03-14T09:55:53;95757.41;;;10.92;61.19
74675;BME280;63200;48.810;12.352;2023-03-14T09:58:22;95721.19;;;10.88;62.07
74675;BME280;63200;48.810;12.352;2023-03-14T10:00:50;95745.38;;;11.02;60.41
74675;BME280;63200;48.810;12.352;2023-03-14T10:03:23;95751.84;;;10.89;60.75
74675;BME280;63200;48.810;12.352;2023-03-14T10:05:50;95749.03;;;11.06;60.92
74675;BME280;63200;48.810;12.352;2023-03-14T10:08:15;95752.06;;;11.05;60.90
74675;BME280;63200;48.810;12.352;2023-03-14T10:10:41;95713.78;;;10.97;59.80
74675;BME280;63200;48.810;12.352;2023-03-14T10:15:35;95748.16;;;11.57;60.11
74675;BME280;63200;48.810;12.352;2023-03-14T10:18:04;95735.34;;;11.57;59.33
74675;BME280;63200;48.810;12.352;2023-03-14T10:20:40;95738.09;;;11.91;57.84
74675;BME280;63200;48.810;12.352;2023-03-14T10:26:00;95728.78;;;12.25;58.32
74675;BME280;63200;48.810;12.352;2023-03-14T10:30:51;95715.06;;;12.83;56.12
74675;BME280;63200;48.810;12.352;2023-03-14T10:33:21;95725.41;;;13.19;53.90
74675;BME280;63200;48.810;12.352;2023-03-14T10:36:02;95722.91;;;14.11;53.78
74675;BME280;63200;48.810;12.352;2023-03-14T10:38:30;95717.06;;;13.52;53.80
74675;BME280;63200;48.810;12.352;2023-03-14T10:40:56;95677.53;;;13.74;52.69
74675;BME280;63200;48.810;12.352;2023-03-14T10:43:25;95699.34;;;13.74;51.28
74675;BME280;63200;48.810;12.352;2023-03-14T10:46:15;95723.59;;;13.23;51.71
74675;BME280;63200;48.810;12.352;2023-03-14T10:48:42;95711.56;;;12.58;54.64
74675;BME280;63200;48.810;12.352;2023-03-14T10:53:49;95712.53;;;12.66;54.87
74675;BME280;63200;48.810;12.352;2023-03-14T10:56:18;95712.56;;;12.41;54.89
74675;BME280;63200;48.810;12.352;2023-03-14T10:58:45;95718.81;;;12.66;54.54
74675;BME280;63200;48.810;12.352;2023-03-14T11:03:56;95691.34;;;12.72;53.94
74675;BME280;63200;48.810;12.352;2023-03-14T11:06:39;95704.63;;;12.24;53.93
74675;BME280;63200;48.810;12.352;2023-03-14T11:11:46;95702.47;;;12.42;54.73
74675;BME280;63200;48.810;12.352;2023-03-14T11:17:26;95697.34;;;12.53;54.83
74675;BME280;63200;48.810;12.352;2023-03-14T11:20:09;95702.31;;;13.00;53.93
74675;BME280;63200;48.810;12.352;2023-03-14T11:22:46;95701.13;;;12.73;53.48
74675;BME280;63200;48.810;12.352;2023-03-14T11:25:21;95695.41;;;13.31;52.04
74675;BME280;63200;48.810;12.352;2023-03-14T11:28:18;95704.72;;;12.64;53.29
74675;BME280;63200;48.810;12.352;2023-03-14T11:30:55;95682.19;;;12.52;53.08
74675;BME280;63200;48.810;12.352;2023-03-14T11:33:36;95687.16;;;12.74;54.71
74675;BME280;63200;48.810;12.352;2023-03-14T11:36:12;95684.06;;;12.88;53.54
74675;BME280;63200;48.810;12.352;2023-03-14T11:41:20;95685.44;;;12.08;55.52
74675;BME280;63200;48.810;12.352;2023-03-14T11:43:49;95696.00;;;11.76;55.13
74675;BME280;63200;48.810;12.352;2023-03-14T11:46:39;95689.56;;;11.47;57.54
74675;BME280;63200;48.810;12.352;2023-03-14T11:51:46;95657.16;;;10.87;57.63
74675;BME280;63200;48.810;12.352;2023-03-14T11:54:22;95687.28;;;11.15;58.03
74675;BME280;63200;48.810;12.352;2023-03-14T11:56:58;95685.13;;;11.09;57.71
74675;BME280;63200;48.810;12.352;2023-03-14T11:59:37;95672.78;;;11.11;58.32
74675;BME280;63200;48.810;12.352;2023-03-14T12:02:09;95682.69;;;10.86;57.85
74675;BME280;63200;48.810;12.352;2023-03-14T12:04:47;95684.75;;;10.68;59.32
74675;BME280;63200;48.810;12.352;2023-03-14T12:10:19;95688.88;;;10.74;58.77
74675;BME280;63200;48.810;12.352;2023-03-14T12:12:44;95694.09;;;10.79;58.35
74675;BME280;63200;48.810;12.352;2023-03-14T12:15:20;95678.97;;;10.99;58.13
74675;BME280;63200;48.810;12.352;2023-03-14T12:17:46;95682.84;;;10.90;58.49
74675;BME280;63200;48.810;12.352;2023-03-14T12:20:20;95674.06;;;10.93;58.46
74675;BME280;63200;48.810;12.352;2023-03-14T12:22:46;95676.34;;;10.82;58.66
74675;BME280;63200;48.810;12.352;2023-03-14T12:25:24;95635.72;;;10.94;59.19
74675;BME280;63200;48.810;12.352;2023-03-14T12:30:37;95661.09;;;11.32;58.70
74675;BME280;63200;48.810;12.352;2023-03-14T12:35:36;95618.25;;;11.16;58.98
74675;BME280;63200;48.810;12.352;2023-03-14T12:38:13;95651.50;;;11.34;58.85
74675;BME280;63200;48.810;12.352;2023-03-14T12:43:38;95652.41;;;11.39;58.68
74675;BME280;63200;48.810;12.352;2023-03-14T12:48:45;95638.06;;;12.46;57.22
74675;BME280;63200;48.810;12.352;2023-03-14T12:51:36;95641.44;;;12.55;56.15
74675;BME280;63200;48.810;12.352;2023-03-14T12:54:21;95634.66;;;12.37;55.57
74675;BME280;63200;48.810;12.352;2023-03-14T12:57:20;95638.44;;;12.32;55.81
74675;BME280;63200;48.810;12.352;2023-03-14T13:00:00;95630.13;;;12.41;56.00
74675;BME280;63200;48.810;12.352;2023-03-14T13:02:38;95615.97;;;12.35;57.69
74675;BME280;63200;48.810;12.352;2023-03-14T13:05:22;95624.50;;;12.21;56.57
74675;BME280;63200;48.810;12.352;2023-03-14T13:10:24;95629.75;;;11.80;57.09
74675;BME280;63200;48.810;12.352;2023-03-14T13:15:31;95586.00;;;11.61;57.76
74675;BME280;63200;48.810;12.352;2023-03-14T13:18:16;95627.03;;;11.80;57.78
74675;BME280;63200;48.810;12.352;2023-03-14T13:20:50;95623.84;;;11.66;56.70
74675;BME280;63200;48.810;12.352;2023-03-14T13:23:31;95615.97;;;11.52;57.81
74675;BME280;63200;48.810;12.352;2023-03-14T13:25:57;95613.31;;;11.31;58.56
74675;BME280;63200;48.810;12.352;2023-03-14T13:28:24;95610.56;;;11.19;59.47
74675;BME280;63200;48.810;12.352;2023-03-14T13:30:54;95620.91;;;11.25;59.61
74675;BME280;63200;48.810;12.352;2023-03-14T13:33:22;95622.06;;;11.37;59.59
74675;BME280;63200;48.810;12.352;2023-03-14T13:35:54;95624.31;;;11.34;60.42
74675;BME280;63200;48.810;12.352;2023-03-14T13:38:23;95625.84;;;11.44;58.93
74675;BME280;63200;48.810;12.352;2023-03-14T13:40:50;95619.53;;;11.65;59.19
74675;BME280;63200;48.810;12.352;2023-03-14T13:43:31;95637.94;;;12.05;59.44
74675;BME280;63200;48.810;12.352;2023-03-14T13:46:14;95627.31;;;12.00;58.32
74675;BME280;63200;48.810;12.352;2023-03-14T13:48:58;95621.41;;;12.35;57.45
74675;BME280;63200;48.810;12.352;2023-03-14T13:51:26;95613.28;;;12.76;57.30